sensor_id;sensor_type;location;lat;lon;timestamp;P1;durP1;ratioP1;P2;durP2;ratioP2
19687;SDS011;9993;52.008;4.732;2022-10-29T00:01:51;8.65;;;5.65;;
19687;SDS011;9993;52.008;4.732;2022-10-29T00:04:16;10.63;;;6.20;;
19687;SDS011;9993;52.008;4.732;2022-10-29T00:06:41;11.68;;;6.20;;
19687;SDS011;9993;52.008;4.732;2022-10-29T00:09:06;14.15;;;6.38;;
19687;SDS011;9993;52.008;4.732;2022-10-29T00:11:32;11.57;;;6.40;;
19687;SDS011;9993;52.008;4.732;2022-10-29T00:13:58;10.70;;;6.32;;
19687;SDS011;9993;52.008;4.732;2022-10-29T00:16:28;12.57;;;5.80;;
19687;SDS011;9993;52.008;4.732;2022-10-29T00:18:54;18.42;;;7.22;;
19687;SDS011;9993;52.008;4.732;2022-10-29T00:21:20;9.80;;;7.67;;
19687;SDS011;9993;52.008;4.732;2022-10-29T00:23:45;7.93;;;5.95;;
19687;SDS011;9993;52.008;4.732;2022-10-29T00:26:11;10.07;;;6.57;;
19687;SDS011;9993;52.008;4.732;2022-10-29T00:28:37;9.70;;;7.07;;
19687;SDS011;9993;52.008;4.732;2022-10-29T00:31:03;11.13;;;5.95;;
19687;SDS011;9993;52.008;4.732;2022-10-29T00:33:28;10.80;;;6.95;;
19687;SDS011;9993;52.008;4.732;2022-10-29T00:36:03;10.70;;;6.93;;
19687;SDS011;9993;52.008;4.732;2022-10-29T00:38:30;14.10;;;7.65;;
19687;SDS011;9993;52.008;4.732;2022-10-29T00:40:55;15.50;;;7.20;;
19687;SDS011;9993;52.008;4.732;2022-10-29T00:43:21;12.35;;;8.02;;
19687;SDS011;9993;52.008;4.732;2022-10-29T00:45:48;19.00;;;7.03;;
19687;SDS011;9993;52.008;4.732;2022-10-29T00:48:15;16.25;;;8.73;;
19687;SDS011;9993;52.008;4.732;2022-10-29T00:50:41;11.50;;;7.45;;
19687;SDS011;9993;52.008;4.732;2022-10-29T00:53:07;13.37;;;8.43;;
19687;SDS011;9993;52.008;4.732;2022-10-29T00:55:32;15.43;;;9.57;;
19687;SDS011;9993;52.008;4.732;2022-10-29T00:57:57;16.42;;;7.95;;
19687;SDS011;9993;52.008;4.732;2022-10-29T01:00:24;18.77;;;8.50;;
19687;SDS011;9993;52.008;4.732;2022-10-29T01:02:50;12.18;;;6.50;;
19687;SDS011;9993;52.008;4.732;2022-10-29T01:05:16;7.78;;;6.75;;
19687;SDS011;9993;52.008;4.732;2022-10-29T01:07:42;9.15;;;6.68;;
19687;SDS011;9993;52.008;4.732;2022-10-29T01:10:08;12.37;;;8.93;;
19687;SDS011;9993;52.008;4.732;2022-10-29T01:12:56;11.63;;;7.93;;
19687;SDS011;9993;52.008;4.732;2022-10-29T01:15:28;10.40;;;7.75;;
19687;SDS011;9993;52.008;4.732;2022-10-29T01:18:06;18.48;;;8.43;;
19687;SDS011;9993;52.008;4.732;2022-10-29T01:21:22;10.43;;;7.90;;
19687;SDS011;9993;52.008;4.732;2022-10-29T01:40:27;10.73;;;7.22;;
19687;SDS011;9993;52.008;4.732;2022-10-29T01:43:03;15.88;;;8.05;;
19687;SDS011;9993;52.008;4.732;2022-10-29T01:45:32;12.05;;;7.18;;
19687;SDS011;9993;52.008;4.732;2022-10-29T01:48:09;14.80;;;8.10;;
19687;SDS011;9993;52.008;4.732;2022-10-29T01:50:36;15.35;;;8.30;;
19687;SDS011;9993;52.008;4.732;2022-10-29T01:53:03;11.60;;;7.93;;
19687;SDS011;9993;52.008;4.732;2022-10-29T01:55:30;11.88;;;7.35;;
19687;SDS011;9993;52.008;4.732;2022-10-29T01:57:56;12.60;;;7.83;;
19687;SDS011;9993;52.008;4.732;2022-10-29T02:00:21;10.10;;;8.02;;
19687;SDS011;9993;52.008;4.732;2022-10-29T02:03:22;14.13;;;7.65;;
19687;SDS011;9993;52.008;4.732;2022-10-29T02:13:46;11.00;;;6.97;;
19687;SDS011;9993;52.008;4.732;2022-10-29T02:16:13;9.68;;;6.63;;
19687;SDS011;9993;52.008;4.732;2022-10-29T02:18:41;12.93;;;6.73;;
19687;SDS011;9993;52.008;4.732;2022-10-29T02:21:06;9.60;;;7.13;;
19687;SDS011;9993;52.008;4.732;2022-10-29T02:23:31;9.63;;;7.47;;
19687;SDS011;9993;52.008;4.732;2022-10-29T02:25:56;9.33;;;6.90;;
19687;SDS011;9993;52.008;4.732;2022-10-29T02:28:22;13.43;;;6.57;;
19687;SDS011;9993;52.008;4.732;2022-10-29T02:30:47;13.30;;;6.97;;
19687;SDS011;9993;52.008;4.732;2022-10-29T02:33:12;12.73;;;7.43;;
19687;SDS011;9993;52.008;4.732;2022-10-29T02:35:37;17.23;;;8.57;;
19687;SDS011;9993;52.008;4.732;2022-10-29T02:38:02;14.30;;;7.33;;
19687;SDS011;9993;52.008;4.732;2022-10-29T02:40:27;16.53;;;7.47;;
19687;SDS011;9993;52.008;4.732;2022-10-29T02:42:53;8.67;;;6.97;;
19687;SDS011;9993;52.008;4.732;2022-10-29T02:45:18;8.83;;;6.83;;
19687;SDS011;9993;52.008;4.732;2022-10-29T02:47:43;12.98;;;6.72;;
19687;SDS011;9993;52.008;4.732;2022-10-29T02:50:08;11.67;;;8.03;;
19687;SDS011;9993;52.008;4.732;2022-10-29T02:52:34;9.40;;;6.77;;
19687;SDS011;9993;52.008;4.732;2022-10-29T02:54:59;11.20;;;7.40;;
19687;SDS011;9993;52.008;4.732;2022-10-29T02:57:24;11.80;;;6.97;;
19687;SDS011;9993;52.008;4.732;2022-10-29T02:59:49;8.00;;;6.37;;
19687;SDS011;9993;52.008;4.732;2022-10-29T03:02:14;11.63;;;6.30;;
19687;SDS011;9993;52.008;4.732;2022-10-29T03:04:40;10.20;;;7.55;;
19687;SDS011;9993;52.008;4.732;2022-10-29T03:07:05;11.00;;;8.40;;
19687;SDS011;9993;52.008;4.732;2022-10-29T03:09:30;10.83;;;7.50;;
19687;SDS011;9993;52.008;4.732;2022-10-29T03:11:55;13.07;;;8.67;;
19687;SDS011;9993;52.008;4.732;2022-10-29T03:14:21;13.00;;;7.73;;
19687;SDS011;9993;52.008;4.732;2022-10-29T03:16:46;14.40;;;9.20;;
19687;SDS011;9993;52.008;4.732;2022-10-29T03:19:11;14.30;;;8.55;;
19687;SDS011;9993;52.008;4.732;2022-10-29T03:21:36;13.43;;;9.02;;
19687;SDS011;9993;52.008;4.732;2022-10-29T03:24:02;13.20;;;9.10;;
19687;SDS011;9993;52.008;4.732;2022-10-29T03:26:27;14.23;;;9.27;;
19687;SDS011;9993;52.008;4.732;2022-10-29T03:28:53;12.80;;;8.98;;
19687;SDS011;9993;52.008;4.732;2022-10-29T03:31:19;13.07;;;9.60;;
19687;SDS011;9993;52.008;4.732;2022-10-29T03:33:44;16.50;;;10.63;;
19687;SDS011;9993;52.008;4.732;2022-10-29T03:36:09;16.03;;;10.10;;
19687;SDS011;9993;52.008;4.732;2022-10-29T03:38:34;12.27;;;10.00;;
19687;SDS011;9993;52.008;4.732;2022-10-29T03:40:59;16.90;;;11.35;;
19687;SDS011;9993;52.008;4.732;2022-10-29T03:43:25;15.43;;;9.50;;
19687;SDS011;9993;52.008;4.732;2022-10-29T03:45:54;17.38;;;10.63;;
19687;SDS011;9993;52.008;4.732;2022-10-29T03:48:20;15.70;;;10.18;;
19687;SDS011;9993;52.008;4.732;2022-10-29T03:50:52;15.13;;;11.05;;
19687;SDS011;9993;52.008;4.732;2022-10-29T03:53:17;16.50;;;10.80;;
19687;SDS011;9993;52.008;4.732;2022-10-29T03:55:42;20.65;;;12.48;;
19687;SDS011;9993;52.008;4.732;2022-10-29T03:58:08;22.67;;;12.48;;
19687;SDS011;9993;52.008;4.732;2022-10-29T04:00:33;18.50;;;11.00;;
19687;SDS011;9993;52.008;4.732;2022-10-29T04:02:58;15.27;;;11.07;;
19687;SDS011;9993;52.008;4.732;2022-10-29T04:05:23;15.40;;;10.68;;
19687;SDS011;9993;52.008;4.732;2022-10-29T04:07:48;16.48;;;11.50;;
19687;SDS011;9993;52.008;4.732;2022-10-29T04:10:13;20.02;;;11.48;;
19687;SDS011;9993;52.008;4.732;2022-10-29T04:12:43;20.10;;;11.32;;
19687;SDS011;9993;52.008;4.732;2022-10-29T04:15:08;15.15;;;11.00;;
19687;SDS011;9993;52.008;4.732;2022-10-29T04:17:34;15.87;;;11.13;;
19687;SDS011;9993;52.008;4.732;2022-10-29T04:19:59;17.55;;;11.23;;
19687;SDS011;9993;52.008;4.732;2022-10-29T04:22:24;17.88;;;11.48;;
19687;SDS011;9993;52.008;4.732;2022-10-29T04:24:49;18.00;;;10.85;;
19687;SDS011;9993;52.008;4.732;2022-10-29T04:27:14;16.08;;;11.13;;
19687;SDS011;9993;52.008;4.732;2022-10-29T04:29:40;17.63;;;11.45;;
19687;SDS011;9993;52.008;4.732;2022-10-29T04:32:05;15.65;;;10.63;;
19687;SDS011;9993;52.008;4.732;2022-10-29T04:34:30;18.25;;;11.38;;
19687;SDS011;9993;52.008;4.732;2022-10-29T04:36:55;17.40;;;11.23;;
19687;SDS011;9993;52.008;4.732;2022-10-29T04:39:20;16.92;;;11.70;;
19687;SDS011;9993;52.008;4.732;2022-10-29T04:41:46;16.20;;;11.30;;
19687;SDS011;9993;52.008;4.732;2022-10-29T04:44:12;18.10;;;11.85;;
19687;SDS011;9993;52.008;4.732;2022-10-29T04:46:37;14.93;;;10.63;;
19687;SDS011;9993;52.008;4.732;2022-10-29T04:49:02;19.83;;;11.57;;
19687;SDS011;9993;52.008;4.732;2022-10-29T04:51:27;20.73;;;11.13;;
19687;SDS011;9993;52.008;4.732;2022-10-29T04:53:53;17.10;;;11.45;;
19687;SDS011;9993;52.008;4.732;2022-10-29T04:56:18;19.05;;;11.88;;
19687;SDS011;9993;52.008;4.732;2022-10-29T04:58:43;16.75;;;11.30;;
19687;SDS011;9993;52.008;4.732;2022-10-29T05:01:09;19.15;;;11.68;;
19687;SDS011;9993;52.008;4.732;2022-10-29T05:03:34;15.30;;;10.90;;
19687;SDS011;9993;52.008;4.732;2022-10-29T05:06:02;16.52;;;11.27;;
19687;SDS011;9993;52.008;4.732;2022-10-29T05:08:28;17.73;;;10.48;;
19687;SDS011;9993;52.008;4.732;2022-10-29T05:10:53;16.10;;;11.63;;
19687;SDS011;9993;52.008;4.732;2022-10-29T05:13:18;18.70;;;11.55;;
19687;SDS011;9993;52.008;4.732;2022-10-29T05:15:48;16.38;;;11.35;;
19687;SDS011;9993;52.008;4.732;2022-10-29T05:18:13;20.40;;;12.23;;
19687;SDS011;9993;52.008;4.732;2022-10-29T05:20:38;17.08;;;12.13;;
19687;SDS011;9993;52.008;4.732;2022-10-29T05:23:04;16.55;;;11.77;;
19687;SDS011;9993;52.008;4.732;2022-10-29T05:25:30;18.35;;;12.60;;
19687;SDS011;9993;52.008;4.732;2022-10-29T05:28:15;19.85;;;13.18;;
19687;SDS011;9993;52.008;4.732;2022-10-29T05:30:43;19.67;;;12.50;;
19687;SDS011;9993;52.008;4.732;2022-10-29T05:33:09;16.35;;;11.43;;
19687;SDS011;9993;52.008;4.732;2022-10-29T05:35:34;17.77;;;13.35;;
19687;SDS011;9993;52.008;4.732;2022-10-29T05:38:00;22.42;;;13.20;;
19687;SDS011;9993;52.008;4.732;2022-10-29T05:40:25;20.92;;;13.98;;
19687;SDS011;9993;52.008;4.732;2022-10-29T05:42:51;25.20;;;14.35;;
19687;SDS011;9993;52.008;4.732;2022-10-29T05:45:16;23.17;;;14.70;;
19687;SDS011;9993;52.008;4.732;2022-10-29T05:47:41;21.10;;;13.90;;
19687;SDS011;9993;52.008;4.732;2022-10-29T05:50:07;22.10;;;13.48;;
19687;SDS011;9993;52.008;4.732;2022-10-29T05:52:32;21.38;;;13.77;;
19687;SDS011;9993;52.008;4.732;2022-10-29T05:54:58;21.83;;;14.40;;
19687;SDS011;9993;52.008;4.732;2022-10-29T05:57:23;21.85;;;14.43;;
19687;SDS011;9993;52.008;4.732;2022-10-29T05:59:48;24.65;;;14.63;;
19687;SDS011;9993;52.008;4.732;2022-10-29T06:02:13;23.50;;;13.73;;
19687;SDS011;9993;52.008;4.732;2022-10-29T06:04:38;19.20;;;13.70;;
19687;SDS011;9993;52.008;4.732;2022-10-29T06:07:04;22.70;;;14.35;;
19687;SDS011;9993;52.008;4.732;2022-10-29T06:09:29;19.52;;;12.75;;
19687;SDS011;9993;52.008;4.732;2022-10-29T06:11:54;27.58;;;13.95;;
19687;SDS011;9993;52.008;4.732;2022-10-29T06:14:20;24.10;;;14.05;;
19687;SDS011;9993;52.008;4.732;2022-10-29T06:16:45;22.17;;;14.80;;
19687;SDS011;9993;52.008;4.732;2022-10-29T06:19:10;25.65;;;15.40;;
19687;SDS011;9993;52.008;4.732;2022-10-29T06:21:35;26.42;;;15.63;;
19687;SDS011;9993;52.008;4.732;2022-10-29T06:24:01;26.55;;;15.65;;
19687;SDS011;9993;52.008;4.732;2022-10-29T06:26:26;29.88;;;15.50;;
19687;SDS011;9993;52.008;4.732;2022-10-29T06:28:51;31.02;;;16.23;;
19687;SDS011;9993;52.008;4.732;2022-10-29T06:31:16;23.90;;;15.43;;
19687;SDS011;9993;52.008;4.732;2022-10-29T06:33:42;29.70;;;15.82;;
19687;SDS011;9993;52.008;4.732;2022-10-29T06:36:07;33.33;;;17.20;;
19687;SDS011;9993;52.008;4.732;2022-10-29T06:38:32;29.58;;;16.00;;
19687;SDS011;9993;52.008;4.732;2022-10-29T06:40:57;34.00;;;15.95;;
19687;SDS011;9993;52.008;4.732;2022-10-29T06:43:23;32.67;;;17.00;;
19687;SDS011;9993;52.008;4.732;2022-10-29T06:45:48;31.73;;;16.98;;
19687;SDS011;9993;52.008;4.732;2022-10-29T06:48:14;27.75;;;16.63;;
19687;SDS011;9993;52.008;4.732;2022-10-29T06:50:39;29.23;;;17.77;;
19687;SDS011;9993;52.008;4.732;2022-10-29T06:53:05;24.20;;;14.57;;
19687;SDS011;9993;52.008;4.732;2022-10-29T06:55:31;28.17;;;16.50;;
19687;SDS011;9993;52.008;4.732;2022-10-29T06:57:57;31.35;;;17.05;;
19687;SDS011;9993;52.008;4.732;2022-10-29T07:00:22;27.02;;;16.83;;
19687;SDS011;9993;52.008;4.732;2022-10-29T07:02:48;31.88;;;18.67;;
19687;SDS011;9993;52.008;4.732;2022-10-29T07:05:13;26.45;;;17.85;;
19687;SDS011;9993;52.008;4.732;2022-10-29T07:07:38;30.77;;;16.35;;
19687;SDS011;9993;52.008;4.732;2022-10-29T07:10:04;26.70;;;16.75;;
19687;SDS011;9993;52.008;4.732;2022-10-29T07:12:29;29.05;;;17.67;;
19687;SDS011;9993;52.008;4.732;2022-10-29T07:14:54;32.72;;;17.63;;
19687;SDS011;9993;52.008;4.732;2022-10-29T07:17:19;34.00;;;18.90;;
19687;SDS011;9993;52.008;4.732;2022-10-29T07:19:44;35.40;;;18.50;;
19687;SDS011;9993;52.008;4.732;2022-10-29T07:22:09;31.85;;;17.85;;
19687;SDS011;9993;52.008;4.732;2022-10-29T07:24:35;35.30;;;19.55;;
19687;SDS011;9993;52.008;4.732;2022-10-29T07:27:00;35.72;;;19.23;;
19687;SDS011;9993;52.008;4.732;2022-10-29T07:29:25;27.83;;;17.55;;
19687;SDS011;9993;52.008;4.732;2022-10-29T07:31:51;33.53;;;18.65;;
19687;SDS011;9993;52.008;4.732;2022-10-29T07:34:16;31.17;;;18.02;;
19687;SDS011;9993;52.008;4.732;2022-10-29T07:36:41;28.38;;;17.85;;
19687;SDS011;9993;52.008;4.732;2022-10-29T07:39:06;30.67;;;16.92;;
19687;SDS011;9993;52.008;4.732;2022-10-29T07:41:31;28.13;;;16.95;;
19687;SDS011;9993;52.008;4.732;2022-10-29T07:43:57;31.67;;;17.95;;
19687;SDS011;9993;52.008;4.732;2022-10-29T07:46:22;29.52;;;16.50;;
19687;SDS011;9993;52.008;4.732;2022-10-29T07:48:47;28.40;;;17.30;;
19687;SDS011;9993;52.008;4.732;2022-10-29T07:51:12;31.90;;;17.70;;
19687;SDS011;9993;52.008;4.732;2022-10-29T07:53:38;26.92;;;16.63;;
19687;SDS011;9993;52.008;4.732;2022-10-29T07:56:03;28.23;;;17.17;;
19687;SDS011;9993;52.008;4.732;2022-10-29T07:58:28;31.70;;;17.85;;
19687;SDS011;9993;52.008;4.732;2022-10-29T08:00:53;26.65;;;15.95;;
19687;SDS011;9993;52.008;4.732;2022-10-29T08:03:18;30.20;;;16.70;;
19687;SDS011;9993;52.008;4.732;2022-10-29T08:05:44;30.17;;;16.85;;
19687;SDS011;9993;52.008;4.732;2022-10-29T08:08:11;31.05;;;16.88;;
19687;SDS011;9993;52.008;4.732;2022-10-29T08:10:36;28.60;;;16.45;;
19687;SDS011;9993;52.008;4.732;2022-10-29T08:13:03;30.40;;;17.20;;
19687;SDS011;9993;52.008;4.732;2022-10-29T08:15:29;30.10;;;16.75;;
19687;SDS011;9993;52.008;4.732;2022-10-29T08:17:55;25.45;;;17.17;;
19687;SDS011;9993;52.008;4.732;2022-10-29T08:20:20;28.52;;;16.73;;
19687;SDS011;9993;52.008;4.732;2022-10-29T08:22:46;24.50;;;16.40;;
19687;SDS011;9993;52.008;4.732;2022-10-29T08:25:11;34.00;;;17.52;;
19687;SDS011;9993;52.008;4.732;2022-10-29T08:27:36;26.60;;;15.88;;
19687;SDS011;9993;52.008;4.732;2022-10-29T08:30:02;25.90;;;17.33;;
19687;SDS011;9993;52.008;4.732;2022-10-29T08:32:27;27.73;;;16.17;;
19687;SDS011;9993;52.008;4.732;2022-10-29T08:34:52;24.97;;;15.47;;
19687;SDS011;9993;52.008;4.732;2022-10-29T08:37:17;27.58;;;16.17;;
19687;SDS011;9993;52.008;4.732;2022-10-29T08:39:43;22.60;;;14.48;;
19687;SDS011;9993;52.008;4.732;2022-10-29T08:42:12;26.80;;;14.30;;
19687;SDS011;9993;52.008;4.732;2022-10-29T08:44:52;31.70;;;15.70;;
19687;SDS011;9993;52.008;4.732;2022-10-29T08:47:22;27.33;;;15.52;;
19687;SDS011;9993;52.008;4.732;2022-10-29T08:52:38;25.83;;;14.68;;
19687;SDS011;9993;52.008;4.732;2022-10-29T08:55:17;24.90;;;15.82;;
19687;SDS011;9993;52.008;4.732;2022-10-29T08:57:44;26.02;;;14.20;;
19687;SDS011;9993;52.008;4.732;2022-10-29T09:02:35;19.98;;;13.27;;
19687;SDS011;9993;52.008;4.732;2022-10-29T09:05:01;21.92;;;13.60;;
19687;SDS011;9993;52.008;4.732;2022-10-29T09:07:38;26.40;;;13.82;;
19687;SDS011;9993;52.008;4.732;2022-10-29T09:15:08;23.05;;;14.15;;
19687;SDS011;9993;52.008;4.732;2022-10-29T09:22:34;24.33;;;13.70;;
19687;SDS011;9993;52.008;4.732;2022-10-29T09:28:04;23.10;;;13.00;;
19687;SDS011;9993;52.008;4.732;2022-10-29T09:30:18;21.05;;;12.63;;
19687;SDS011;9993;52.008;4.732;2022-10-29T09:32:48;18.42;;;12.20;;
19687;SDS011;9993;52.008;4.732;2022-10-29T09:35:16;21.05;;;12.73;;
19687;SDS011;9993;52.008;4.732;2022-10-29T09:37:48;15.05;;;11.63;;
19687;SDS011;9993;52.008;4.732;2022-10-29T09:42:42;20.67;;;12.63;;
19687;SDS011;9993;52.008;4.732;2022-10-29T09:45:11;18.65;;;11.70;;
19687;SDS011;9993;52.008;4.732;2022-10-29T09:50:25;19.20;;;11.93;;
19687;SDS011;9993;52.008;4.732;2022-10-29T09:52:53;19.55;;;12.35;;
19687;SDS011;9993;52.008;4.732;2022-10-29T09:55:23;21.58;;;11.88;;
19687;SDS011;9993;52.008;4.732;2022-10-29T09:57:49;20.63;;;12.55;;
19687;SDS011;9993;52.008;4.732;2022-10-29T10:00:20;17.70;;;11.63;;
19687;SDS011;9993;52.008;4.732;2022-10-29T10:02:53;16.67;;;10.90;;
19687;SDS011;9993;52.008;4.732;2022-10-29T10:05:25;13.93;;;10.10;;
19687;SDS011;9993;52.008;4.732;2022-10-29T10:08:04;17.27;;;9.80;;
19687;SDS011;9993;52.008;4.732;2022-10-29T10:10:30;15.80;;;10.45;;
19687;SDS011;9993;52.008;4.732;2022-10-29T10:13:00;16.42;;;10.50;;
19687;SDS011;9993;52.008;4.732;2022-10-29T10:15:29;16.48;;;9.77;;
19687;SDS011;9993;52.008;4.732;2022-10-29T10:20:25;15.80;;;9.50;;
19687;SDS011;9993;52.008;4.732;2022-10-29T10:22:51;16.55;;;10.55;;
19687;SDS011;9993;52.008;4.732;2022-10-29T10:25:38;16.42;;;10.43;;
19687;SDS011;9993;52.008;4.732;2022-10-29T10:28:14;14.20;;;9.63;;
19687;SDS011;9993;52.008;4.732;2022-10-29T10:30:40;18.77;;;10.27;;
19687;SDS011;9993;52.008;4.732;2022-10-29T10:33:25;15.40;;;10.27;;
19687;SDS011;9993;52.008;4.732;2022-10-29T10:35:51;17.25;;;9.82;;
19687;SDS011;9993;52.008;4.732;2022-10-29T10:38:16;16.42;;;10.13;;
19687;SDS011;9993;52.008;4.732;2022-10-29T10:40:42;14.57;;;10.23;;
19687;SDS011;9993;52.008;4.732;2022-10-29T10:43:16;17.77;;;10.77;;
19687;SDS011;9993;52.008;4.732;2022-10-29T10:45:43;16.17;;;9.63;;
19687;SDS011;9993;52.008;4.732;2022-10-29T10:48:11;16.45;;;9.77;;
19687;SDS011;9993;52.008;4.732;2022-10-29T10:50:38;14.63;;;9.05;;
19687;SDS011;9993;52.008;4.732;2022-10-29T10:53:16;13.25;;;8.77;;
19687;SDS011;9993;52.008;4.732;2022-10-29T10:55:46;14.27;;;8.40;;
19687;SDS011;9993;52.008;4.732;2022-10-29T11:00:39;16.27;;;8.50;;
19687;SDS011;9993;52.008;4.732;2022-10-29T11:03:16;12.93;;;8.77;;
19687;SDS011;9993;52.008;4.732;2022-10-29T11:10:42;12.50;;;7.13;;
19687;SDS011;9993;52.008;4.732;2022-10-29T11:13:12;10.65;;;7.20;;
19687;SDS011;9993;52.008;4.732;2022-10-29T11:15:46;11.18;;;7.40;;
19687;SDS011;9993;52.008;4.732;2022-10-29T11:18:14;14.57;;;7.18;;
19687;SDS011;9993;52.008;4.732;2022-10-29T11:20:42;11.80;;;7.88;;
19687;SDS011;9993;52.008;4.732;2022-10-29T11:26:02;12.57;;;7.40;;
19687;SDS011;9993;52.008;4.732;2022-10-29T11:28:36;11.85;;;7.13;;
19687;SDS011;9993;52.008;4.732;2022-10-29T11:31:48;12.45;;;7.47;;
19687;SDS011;9993;52.008;4.732;2022-10-29T11:36:22;12.43;;;7.93;;
19687;SDS011;9993;52.008;4.732;2022-10-29T11:38:53;13.82;;;7.57;;
19687;SDS011;9993;52.008;4.732;2022-10-29T11:41:31;11.63;;;7.35;;
19687;SDS011;9993;52.008;4.732;2022-10-29T11:43:57;10.93;;;6.93;;
19687;SDS011;9993;52.008;4.732;2022-10-29T11:52:01;14.18;;;7.10;;
19687;SDS011;9993;52.008;4.732;2022-10-29T11:54:42;15.88;;;7.55;;
19687;SDS011;9993;52.008;4.732;2022-10-29T11:57:12;12.30;;;7.15;;
19687;SDS011;9993;52.008;4.732;2022-10-29T12:02:34;9.82;;;6.60;;
19687;SDS011;9993;52.008;4.732;2022-10-29T12:05:13;14.13;;;6.80;;
19687;SDS011;9993;52.008;4.732;2022-10-29T12:20:23;11.40;;;7.15;;
19687;SDS011;9993;52.008;4.732;2022-10-29T12:22:54;12.35;;;6.40;;
19687;SDS011;9993;52.008;4.732;2022-10-29T12:28:08;11.80;;;6.43;;
19687;SDS011;9993;52.008;4.732;2022-10-29T12:30:45;12.65;;;6.03;;
19687;SDS011;9993;52.008;4.732;2022-10-29T12:33:19;12.45;;;6.65;;
19687;SDS011;9993;52.008;4.732;2022-10-29T12:35:56;14.32;;;6.70;;
19687;SDS011;9993;52.008;4.732;2022-10-29T12:41:23;13.00;;;6.05;;
19687;SDS011;9993;52.008;4.732;2022-10-29T12:43:51;14.07;;;5.97;;
19687;SDS011;9993;52.008;4.732;2022-10-29T12:51:17;12.63;;;6.88;;
19687;SDS011;9993;52.008;4.732;2022-10-29T12:53:46;8.32;;;5.57;;
19687;SDS011;9993;52.008;4.732;2022-10-29T12:56:16;12.05;;;6.03;;
19687;SDS011;9993;52.008;4.732;2022-10-29T12:58:46;11.18;;;6.13;;
19687;SDS011;9993;52.008;4.732;2022-10-29T13:09:16;11.95;;;5.32;;
19687;SDS011;9993;52.008;4.732;2022-10-29T13:11:43;9.05;;;5.47;;
19687;SDS011;9993;52.008;4.732;2022-10-29T13:14:10;7.10;;;5.07;;
19687;SDS011;9993;52.008;4.732;2022-10-29T13:16:36;11.35;;;5.55;;
19687;SDS011;9993;52.008;4.732;2022-10-29T13:19:15;11.02;;;5.80;;
19687;SDS011;9993;52.008;4.732;2022-10-29T13:21:55;8.80;;;5.75;;
19687;SDS011;9993;52.008;4.732;2022-10-29T13:24:21;12.23;;;5.38;;
19687;SDS011;9993;52.008;4.732;2022-10-29T13:26:51;10.05;;;5.88;;
19687;SDS011;9993;52.008;4.732;2022-10-29T13:29:38;10.80;;;5.82;;
19687;SDS011;9993;52.008;4.732;2022-10-29T13:32:04;8.63;;;6.00;;
19687;SDS011;9993;52.008;4.732;2022-10-29T13:34:48;11.90;;;5.15;;
19687;SDS011;9993;52.008;4.732;2022-10-29T13:42:41;11.95;;;6.43;;
19687;SDS011;9993;52.008;4.732;2022-10-29T13:45:09;9.75;;;6.07;;
19687;SDS011;9993;52.008;4.732;2022-10-29T13:47:35;11.88;;;5.80;;
19687;SDS011;9993;52.008;4.732;2022-10-29T13:50:00;10.63;;;5.75;;
19687;SDS011;9993;52.008;4.732;2022-10-29T13:52:28;10.55;;;6.00;;
19687;SDS011;9993;52.008;4.732;2022-10-29T13:55:00;15.75;;;6.10;;
19687;SDS011;9993;52.008;4.732;2022-10-29T13:57:29;14.38;;;6.13;;
19687;SDS011;9993;52.008;4.732;2022-10-29T13:59:58;10.20;;;6.05;;
19687;SDS011;9993;52.008;4.732;2022-10-29T14:02:30;14.15;;;6.38;;
19687;SDS011;9993;52.008;4.732;2022-10-29T14:07:37;12.75;;;6.25;;
19687;SDS011;9993;52.008;4.732;2022-10-29T14:10:06;13.57;;;6.53;;
19687;SDS011;9993;52.008;4.732;2022-10-29T14:12:32;12.77;;;6.40;;
19687;SDS011;9993;52.008;4.732;2022-10-29T14:15:09;7.53;;;5.22;;
19687;SDS011;9993;52.008;4.732;2022-10-29T14:17:34;7.72;;;5.60;;
19687;SDS011;9993;52.008;4.732;2022-10-29T14:19:59;9.65;;;6.13;;
19687;SDS011;9993;52.008;4.732;2022-10-29T14:22:29;10.20;;;5.25;;
19687;SDS011;9993;52.008;4.732;2022-10-29T14:24:57;11.85;;;5.05;;
19687;SDS011;9993;52.008;4.732;2022-10-29T14:27:22;9.18;;;5.75;;
19687;SDS011;9993;52.008;4.732;2022-10-29T14:29:47;11.73;;;5.85;;
19687;SDS011;9993;52.008;4.732;2022-10-29T14:32:14;8.88;;;4.82;;
19687;SDS011;9993;52.008;4.732;2022-10-29T14:34:39;11.38;;;5.75;;
19687;SDS011;9993;52.008;4.732;2022-10-29T14:39:41;10.52;;;5.65;;
19687;SDS011;9993;52.008;4.732;2022-10-29T14:42:13;10.82;;;5.43;;
19687;SDS011;9993;52.008;4.732;2022-10-29T14:44:40;9.32;;;6.22;;
19687;SDS011;9993;52.008;4.732;2022-10-29T14:49:31;13.07;;;5.30;;
19687;SDS011;9993;52.008;4.732;2022-10-29T14:51:59;10.50;;;5.75;;
19687;SDS011;9993;52.008;4.732;2022-10-29T14:54:25;9.90;;;5.35;;
19687;SDS011;9993;52.008;4.732;2022-10-29T14:56:56;10.73;;;6.03;;
19687;SDS011;9993;52.008;4.732;2022-10-29T14:59:23;8.63;;;5.05;;
19687;SDS011;9993;52.008;4.732;2022-10-29T15:01:50;13.02;;;5.20;;
19687;SDS011;9993;52.008;4.732;2022-10-29T15:04:17;10.70;;;5.45;;
19687;SDS011;9993;52.008;4.732;2022-10-29T15:06:42;9.10;;;5.43;;
19687;SDS011;9993;52.008;4.732;2022-10-29T15:09:14;12.07;;;5.35;;
19687;SDS011;9993;52.008;4.732;2022-10-29T15:12:06;12.75;;;5.78;;
19687;SDS011;9993;52.008;4.732;2022-10-29T15:16:57;6.93;;;5.38;;
19687;SDS011;9993;52.008;4.732;2022-10-29T15:19:22;8.20;;;5.30;;
19687;SDS011;9993;52.008;4.732;2022-10-29T15:21:48;9.10;;;5.85;;
19687;SDS011;9993;52.008;4.732;2022-10-29T15:24:15;13.30;;;6.05;;
19687;SDS011;9993;52.008;4.732;2022-10-29T15:26:46;13.32;;;6.25;;
19687;SDS011;9993;52.008;4.732;2022-10-29T15:29:13;9.60;;;5.57;;
19687;SDS011;9993;52.008;4.732;2022-10-29T15:31:42;10.95;;;6.50;;
19687;SDS011;9993;52.008;4.732;2022-10-29T15:34:08;10.10;;;6.22;;
19687;SDS011;9993;52.008;4.732;2022-10-29T15:36:43;8.52;;;5.88;;
19687;SDS011;9993;52.008;4.732;2022-10-29T15:41:45;11.57;;;5.95;;
19687;SDS011;9993;52.008;4.732;2022-10-29T15:46:55;10.82;;;6.40;;
19687;SDS011;9993;52.008;4.732;2022-10-29T15:49:23;12.25;;;6.13;;
19687;SDS011;9993;52.008;4.732;2022-10-29T15:51:48;8.23;;;5.88;;
19687;SDS011;9993;52.008;4.732;2022-10-29T15:54:13;9.40;;;5.32;;
19687;SDS011;9993;52.008;4.732;2022-10-29T15:56:39;9.45;;;5.32;;
19687;SDS011;9993;52.008;4.732;2022-10-29T15:59:04;10.80;;;5.60;;
19687;SDS011;9993;52.008;4.732;2022-10-29T16:01:30;9.40;;;5.47;;
19687;SDS011;9993;52.008;4.732;2022-10-29T16:03:55;9.20;;;5.57;;
19687;SDS011;9993;52.008;4.732;2022-10-29T16:06:20;11.30;;;4.90;;
19687;SDS011;9993;52.008;4.732;2022-10-29T16:08:49;12.65;;;5.85;;
19687;SDS011;9993;52.008;4.732;2022-10-29T16:11:16;11.98;;;5.53;;
19687;SDS011;9993;52.008;4.732;2022-10-29T16:13:44;8.68;;;5.90;;
19687;SDS011;9993;52.008;4.732;2022-10-29T16:16:12;11.65;;;5.43;;
19687;SDS011;9993;52.008;4.732;2022-10-29T16:18:39;11.25;;;5.95;;
19687;SDS011;9993;52.008;4.732;2022-10-29T16:21:05;9.13;;;5.65;;
19687;SDS011;9993;52.008;4.732;2022-10-29T16:23:35;10.77;;;5.72;;
19687;SDS011;9993;52.008;4.732;2022-10-29T16:26:01;7.75;;;5.53;;
19687;SDS011;9993;52.008;4.732;2022-10-29T16:28:26;13.75;;;6.13;;
19687;SDS011;9993;52.008;4.732;2022-10-29T16:30:52;7.05;;;5.65;;
19687;SDS011;9993;52.008;4.732;2022-10-29T16:33:18;9.23;;;5.88;;
19687;SDS011;9993;52.008;4.732;2022-10-29T16:35:43;12.70;;;5.97;;
19687;SDS011;9993;52.008;4.732;2022-10-29T16:38:08;9.25;;;5.53;;
19687;SDS011;9993;52.008;4.732;2022-10-29T16:40:35;15.23;;;6.22;;
19687;SDS011;9993;52.008;4.732;2022-10-29T16:43:00;11.07;;;6.20;;
19687;SDS011;9993;52.008;4.732;2022-10-29T16:45:26;7.38;;;5.47;;
19687;SDS011;9993;52.008;4.732;2022-10-29T16:47:52;9.32;;;5.60;;
19687;SDS011;9993;52.008;4.732;2022-10-29T16:50:21;11.48;;;6.20;;